Airfield :
LOGIN :

Register | Disclaimer

   EN    FR    IT 

 










Legend :    VFR   Marginal VFR   IFR   Intensive IFR   Very Intensive IFR
Visi :
Ceiling :
>= 8 km
>= 3000ft
5 to 8 km
1000 to 3000 ft
1500m to 5 km
500 to 1000 ft
800 to 1500m
200 to 500 ft
< 800m
< 200 ft
Symbols :   Thunderstorms  Fog  Heavy snow  Heavy precipitations  Wind > 20 kt
SIGMETs :     Misc.  Thunderstorms  Icing  Turbulence  Mountain Waves  Volcanic Ashes






- Airport Elevation : 325 ft
- IATA code : BES


LFRB - Brest

CURRENT METAR :
  • 111500Z AUTO 01010KT 340V040 9000 FEW043 25/19 Q1013 BECMG BKN008

EXPIRED METARs :
  • 111430Z AUTO 36010KT 330V030 9000 FEW048 26/20 Q1013 BECMG BKN008
  • 111400Z AUTO 35009KT 320V020 9999 FEW044 26/20 Q1013 BECMG BKN008
  • 111330Z AUTO 02009KT 350V050 CAVOK 26/20 Q1013 BECMG BKN008
  • 111300Z AUTO 02010KT 350V050 9000 NSC 26/20 Q1013 BECMG BKN008
  • 111230Z AUTO 03010KT 350V060 9000 NSC 26/20 Q1013 BECMG BKN008

TAF TAF LFRB
Valid from the 11 at 12:00 until the 12 at 18:00 UTC


111100Z 1112/1218 01007KT 9999 BKN008
TEMPO 1112/1120 SCT020
BECMG 1120/1122 2000 BR OVC003
TEMPO 1200/1218 04020G33KT SHRA SCT010CB
PROB30
TEMPO 1206/1214 TSRA
ATIS : +33 2 98 32 02 71



MET'MAP, your aeronautical weather chart ! - Copyright ORBIFLY December 2007 - Disclaimer

ORBIFLY MET'MAP TEAM :

Programming & Development : Alexandra Zaïnal
Concept & original design : Baudouin d'Aumeries
Assistance for programming : Marc-Olivier Méhu
Technical & hardware support : Manuel Goepfert

Contact : metmap@orbifly.com




SOURCES & CREDITS :

   NOAA